sensor_id;sensor_type;location;lat;lon;timestamp;temperature;humidity
33717;DHT22;20046;50.746;7.072;2024-01-15T00:01:26;2.10;99.90
33717;DHT22;20046;50.746;7.072;2024-01-15T00:03:52;2.10;99.90
33717;DHT22;20046;50.746;7.072;2024-01-15T00:06:18;2.10;99.90
33717;DHT22;20046;50.746;7.072;2024-01-15T00:08:43;2.10;99.90
33717;DHT22;20046;50.746;7.072;2024-01-15T00:11:09;2.10;99.90
33717;DHT22;20046;50.746;7.072;2024-01-15T00:13:34;2.20;99.90
33717;DHT22;20046;50.746;7.072;2024-01-15T00:16:00;2.20;99.90
33717;DHT22;20046;50.746;7.072;2024-01-15T00:18:25;2.20;99.90
33717;DHT22;20046;50.746;7.072;2024-01-15T00:20:51;2.20;99.90
33717;DHT22;20046;50.746;7.072;2024-01-15T00:23:16;2.20;99.90
33717;DHT22;20046;50.746;7.072;2024-01-15T00:25:42;2.20;99.90
33717;DHT22;20046;50.746;7.072;2024-01-15T00:28:08;2.20;99.90
33717;DHT22;20046;50.746;7.072;2024-01-15T00:30:33;2.20;99.90
33717;DHT22;20046;50.746;7.072;2024-01-15T00:32:59;2.20;99.90
33717;DHT22;20046;50.746;7.072;2024-01-15T00:35:24;2.10;99.90
33717;DHT22;20046;50.746;7.072;2024-01-15T00:37:50;2.10;99.90
33717;DHT22;20046;50.746;7.072;2024-01-15T00:40:15;2.00;99.90
33717;DHT22;20046;50.746;7.072;2024-01-15T00:42:41;2.00;99.90
33717;DHT22;20046;50.746;7.072;2024-01-15T00:45:07;2.00;99.90
33717;DHT22;20046;50.746;7.072;2024-01-15T00:47:33;2.00;99.90
33717;DHT22;20046;50.746;7.072;2024-01-15T00:50:00;2.00;99.90
33717;DHT22;20046;50.746;7.072;2024-01-15T00:52:25;2.00;99.90
33717;DHT22;20046;50.746;7.072;2024-01-15T00:54:51;1.90;99.90
33717;DHT22;20046;50.746;7.072;2024-01-15T00:57:16;1.80;99.90
33717;DHT22;20046;50.746;7.072;2024-01-15T00:59:44;1.80;99.90
33717;DHT22;20046;50.746;7.072;2024-01-15T01:02:10;1.80;99.90
33717;DHT22;20046;50.746;7.072;2024-01-15T01:04:35;1.70;99.90
33717;DHT22;20046;50.746;7.072;2024-01-15T01:07:01;1.70;99.90
33717;DHT22;20046;50.746;7.072;2024-01-15T01:09:26;1.70;99.90
33717;DHT22;20046;50.746;7.072;2024-01-15T01:11:55;1.70;99.90
33717;DHT22;20046;50.746;7.072;2024-01-15T01:14:21;1.70;99.90
33717;DHT22;20046;50.746;7.072;2024-01-15T01:16:47;1.80;99.90
33717;DHT22;20046;50.746;7.072;2024-01-15T01:19:12;1.80;99.90
33717;DHT22;20046;50.746;7.072;2024-01-15T01:21:38;1.80;99.90
33717;DHT22;20046;50.746;7.072;2024-01-15T01:24:04;1.80;99.90
33717;DHT22;20046;50.746;7.072;2024-01-15T01:26:30;1.80;99.90
33717;DHT22;20046;50.746;7.072;2024-01-15T01:28:55;1.90;99.90
33717;DHT22;20046;50.746;7.072;2024-01-15T01:31:21;1.80;99.90
33717;DHT22;20046;50.746;7.072;2024-01-15T01:33:46;1.80;99.90
33717;DHT22;20046;50.746;7.072;2024-01-15T01:36:12;1.80;99.90
33717;DHT22;20046;50.746;7.072;2024-01-15T01:38:40;1.70;99.90
33717;DHT22;20046;50.746;7.072;2024-01-15T01:41:05;1.70;99.90
33717;DHT22;20046;50.746;7.072;2024-01-15T01:43:31;1.60;99.90
33717;DHT22;20046;50.746;7.072;2024-01-15T01:45:57;1.60;99.90
33717;DHT22;20046;50.746;7.072;2024-01-15T01:48:24;1.50;99.90
33717;DHT22;20046;50.746;7.072;2024-01-15T01:50:52;1.40;99.90
33717;DHT22;20046;50.746;7.072;2024-01-15T01:53:19;1.40;99.90
33717;DHT22;20046;50.746;7.072;2024-01-15T01:55:46;1.40;99.90
33717;DHT22;20046;50.746;7.072;2024-01-15T01:58:13;1.50;99.90
33717;DHT22;20046;50.746;7.072;2024-01-15T02:00:39;1.50;99.90
33717;DHT22;20046;50.746;7.072;2024-01-15T02:03:06;1.50;99.90
33717;DHT22;20046;50.746;7.072;2024-01-15T02:05:32;1.50;99.90
33717;DHT22;20046;50.746;7.072;2024-01-15T02:07:57;1.50;99.90
33717;DHT22;20046;50.746;7.072;2024-01-15T02:10:23;1.50;99.90
33717;DHT22;20046;50.746;7.072;2024-01-15T02:12:49;1.60;99.90
33717;DHT22;20046;50.746;7.072;2024-01-15T02:15:14;1.60;99.90
33717;DHT22;20046;50.746;7.072;2024-01-15T02:18:01;1.70;99.90
33717;DHT22;20046;50.746;7.072;2024-01-15T02:20:27;1.70;99.90
33717;DHT22;20046;50.746;7.072;2024-01-15T02:22:53;1.70;99.90
33717;DHT22;20046;50.746;7.072;2024-01-15T02:25:19;1.70;99.90
33717;DHT22;20046;50.746;7.072;2024-01-15T02:27:45;1.70;99.90
33717;DHT22;20046;50.746;7.072;2024-01-15T02:30:12;1.70;99.90
33717;DHT22;20046;50.746;7.072;2024-01-15T02:32:38;1.70;99.90
33717;DHT22;20046;50.746;7.072;2024-01-15T02:35:04;1.70;99.90
33717;DHT22;20046;50.746;7.072;2024-01-15T02:37:30;1.70;99.90
33717;DHT22;20046;50.746;7.072;2024-01-15T02:39:56;1.70;99.90
33717;DHT22;20046;50.746;7.072;2024-01-15T02:42:21;1.70;99.90
33717;DHT22;20046;50.746;7.072;2024-01-15T02:44:47;1.70;99.90
33717;DHT22;20046;50.746;7.072;2024-01-15T02:47:14;1.70;99.90
33717;DHT22;20046;50.746;7.072;2024-01-15T02:49:39;1.70;99.90
33717;DHT22;20046;50.746;7.072;2024-01-15T02:52:05;1.70;99.90
33717;DHT22;20046;50.746;7.072;2024-01-15T02:54:31;1.70;99.90
33717;DHT22;20046;50.746;7.072;2024-01-15T02:56:57;1.70;99.90
33717;DHT22;20046;50.746;7.072;2024-01-15T02:59:22;1.70;99.90
33717;DHT22;20046;50.746;7.072;2024-01-15T03:01:48;1.70;99.90
33717;DHT22;20046;50.746;7.072;2024-01-15T03:04:13;1.70;99.90
33717;DHT22;20046;50.746;7.072;2024-01-15T03:06:39;1.70;99.90
33717;DHT22;20046;50.746;7.072;2024-01-15T03:09:04;1.70;99.90
33717;DHT22;20046;50.746;7.072;2024-01-15T03:11:37;1.70;99.90
33717;DHT22;20046;50.746;7.072;2024-01-15T03:14:03;1.70;99.90
33717;DHT22;20046;50.746;7.072;2024-01-15T03:16:28;1.70;99.90
33717;DHT22;20046;50.746;7.072;2024-01-15T03:18:54;1.70;99.90
33717;DHT22;20046;50.746;7.072;2024-01-15T03:21:19;1.70;99.90
33717;DHT22;20046;50.746;7.072;2024-01-15T03:23:45;1.70;99.90
33717;DHT22;20046;50.746;7.072;2024-01-15T03:26:11;1.70;99.90
33717;DHT22;20046;50.746;7.072;2024-01-15T03:28:36;1.70;99.90
33717;DHT22;20046;50.746;7.072;2024-01-15T03:31:02;1.70;99.90
33717;DHT22;20046;50.746;7.072;2024-01-15T03:33:27;1.70;99.90
33717;DHT22;20046;50.746;7.072;2024-01-15T03:35:53;1.70;99.90
33717;DHT22;20046;50.746;7.072;2024-01-15T03:38:18;1.70;99.90
33717;DHT22;20046;50.746;7.072;2024-01-15T03:40:44;1.70;99.90
33717;DHT22;20046;50.746;7.072;2024-01-15T03:43:10;1.70;99.90
33717;DHT22;20046;50.746;7.072;2024-01-15T03:45:35;1.70;99.90
33717;DHT22;20046;50.746;7.072;2024-01-15T03:48:01;1.70;99.90
33717;DHT22;20046;50.746;7.072;2024-01-15T03:50:26;1.70;99.90
33717;DHT22;20046;50.746;7.072;2024-01-15T03:52:52;1.60;99.90
33717;DHT22;20046;50.746;7.072;2024-01-15T03:55:17;1.60;99.90
33717;DHT22;20046;50.746;7.072;2024-01-15T03:57:43;1.70;99.90
33717;DHT22;20046;50.746;7.072;2024-01-15T04:00:09;1.70;99.90
33717;DHT22;20046;50.746;7.072;2024-01-15T04:02:35;1.70;99.90
33717;DHT22;20046;50.746;7.072;2024-01-15T04:05:00;1.70;99.90
33717;DHT22;20046;50.746;7.072;2024-01-15T04:07:26;1.70;99.90
33717;DHT22;20046;50.746;7.072;2024-01-15T04:09:51;1.80;99.90
33717;DHT22;20046;50.746;7.072;2024-01-15T04:12:17;1.70;99.90
33717;DHT22;20046;50.746;7.072;2024-01-15T04:14:42;1.70;99.90
33717;DHT22;20046;50.746;7.072;2024-01-15T04:17:08;1.70;99.90
33717;DHT22;20046;50.746;7.072;2024-01-15T04:19:33;1.70;99.90
33717;DHT22;20046;50.746;7.072;2024-01-15T04:21:59;1.70;99.90
33717;DHT22;20046;50.746;7.072;2024-01-15T04:24:25;1.70;99.90
33717;DHT22;20046;50.746;7.072;2024-01-15T04:26:50;1.70;99.90
33717;DHT22;20046;50.746;7.072;2024-01-15T04:29:16;1.70;99.90
33717;DHT22;20046;50.746;7.072;2024-01-15T04:31:41;1.70;99.90
33717;DHT22;20046;50.746;7.072;2024-01-15T04:34:07;1.70;99.90
33717;DHT22;20046;50.746;7.072;2024-01-15T04:36:38;1.70;99.90
33717;DHT22;20046;50.746;7.072;2024-01-15T04:39:04;1.70;99.90
33717;DHT22;20046;50.746;7.072;2024-01-15T04:41:30;1.70;99.90
33717;DHT22;20046;50.746;7.072;2024-01-15T04:43:55;1.70;99.90
33717;DHT22;20046;50.746;7.072;2024-01-15T04:46:21;1.70;99.90
33717;DHT22;20046;50.746;7.072;2024-01-15T04:48:47;1.70;99.90
33717;DHT22;20046;50.746;7.072;2024-01-15T04:51:12;1.60;99.90
33717;DHT22;20046;50.746;7.072;2024-01-15T04:53:38;1.60;99.90
33717;DHT22;20046;50.746;7.072;2024-01-15T04:56:03;1.60;99.90
33717;DHT22;20046;50.746;7.072;2024-01-15T04:58:29;1.50;99.90
33717;DHT22;20046;50.746;7.072;2024-01-15T05:00:55;1.50;99.90
33717;DHT22;20046;50.746;7.072;2024-01-15T05:03:20;1.60;99.90
33717;DHT22;20046;50.746;7.072;2024-01-15T05:05:46;1.50;99.90
33717;DHT22;20046;50.746;7.072;2024-01-15T05:08:11;1.60;99.90
33717;DHT22;20046;50.746;7.072;2024-01-15T05:10:37;1.60;99.90
33717;DHT22;20046;50.746;7.072;2024-01-15T05:13:03;1.60;99.90
33717;DHT22;20046;50.746;7.072;2024-01-15T05:15:28;1.60;99.90
33717;DHT22;20046;50.746;7.072;2024-01-15T05:17:55;1.60;99.90
33717;DHT22;20046;50.746;7.072;2024-01-15T05:20:20;1.70;99.90
33717;DHT22;20046;50.746;7.072;2024-01-15T05:22:46;1.70;99.90
33717;DHT22;20046;50.746;7.072;2024-01-15T05:25:12;1.70;99.90
33717;DHT22;20046;50.746;7.072;2024-01-15T05:27:37;1.70;99.90
33717;DHT22;20046;50.746;7.072;2024-01-15T05:30:03;1.70;99.90
33717;DHT22;20046;50.746;7.072;2024-01-15T05:32:29;1.70;99.90
33717;DHT22;20046;50.746;7.072;2024-01-15T05:34:55;1.70;99.90
33717;DHT22;20046;50.746;7.072;2024-01-15T05:37:20;1.70;99.90
33717;DHT22;20046;50.746;7.072;2024-01-15T05:39:46;1.70;99.90
33717;DHT22;20046;50.746;7.072;2024-01-15T05:42:11;1.80;99.90
33717;DHT22;20046;50.746;7.072;2024-01-15T05:44:37;1.80;99.90
33717;DHT22;20046;50.746;7.072;2024-01-15T05:47:03;1.70;99.90
33717;DHT22;20046;50.746;7.072;2024-01-15T05:49:29;1.70;99.90
33717;DHT22;20046;50.746;7.072;2024-01-15T05:51:55;1.70;99.90
33717;DHT22;20046;50.746;7.072;2024-01-15T05:54:20;1.60;99.90
33717;DHT22;20046;50.746;7.072;2024-01-15T05:56:46;1.60;99.90
33717;DHT22;20046;50.746;7.072;2024-01-15T05:59:11;1.60;99.90
33717;DHT22;20046;50.746;7.072;2024-01-15T06:01:37;1.50;99.90
33717;DHT22;20046;50.746;7.072;2024-01-15T06:04:03;1.50;99.90
33717;DHT22;20046;50.746;7.072;2024-01-15T06:06:28;1.50;99.90
33717;DHT22;20046;50.746;7.072;2024-01-15T06:08:54;1.50;99.90
33717;DHT22;20046;50.746;7.072;2024-01-15T06:11:19;1.60;99.90
33717;DHT22;20046;50.746;7.072;2024-01-15T06:13:45;1.60;99.90
33717;DHT22;20046;50.746;7.072;2024-01-15T06:16:17;1.60;99.90
33717;DHT22;20046;50.746;7.072;2024-01-15T06:18:45;1.70;99.90
33717;DHT22;20046;50.746;7.072;2024-01-15T06:21:11;1.70;99.90
33717;DHT22;20046;50.746;7.072;2024-01-15T06:23:38;1.70;99.90
33717;DHT22;20046;50.746;7.072;2024-01-15T06:26:04;1.70;99.90
33717;DHT22;20046;50.746;7.072;2024-01-15T06:28:29;1.70;99.90
33717;DHT22;20046;50.746;7.072;2024-01-15T06:30:55;1.70;99.90
33717;DHT22;20046;50.746;7.072;2024-01-15T06:33:21;1.70;99.90
33717;DHT22;20046;50.746;7.072;2024-01-15T06:35:46;1.60;99.90
33717;DHT22;20046;50.746;7.072;2024-01-15T06:38:12;1.50;99.90
33717;DHT22;20046;50.746;7.072;2024-01-15T06:40:38;1.50;99.90
33717;DHT22;20046;50.746;7.072;2024-01-15T06:43:07;1.60;99.90
33717;DHT22;20046;50.746;7.072;2024-01-15T06:45:32;1.60;99.90
33717;DHT22;20046;50.746;7.072;2024-01-15T06:47:58;1.70;99.90
33717;DHT22;20046;50.746;7.072;2024-01-15T06:50:24;1.70;99.90
33717;DHT22;20046;50.746;7.072;2024-01-15T06:52:49;1.70;99.90
33717;DHT22;20046;50.746;7.072;2024-01-15T06:55:15;1.70;99.90
33717;DHT22;20046;50.746;7.072;2024-01-15T06:57:41;1.70;99.90
33717;DHT22;20046;50.746;7.072;2024-01-15T07:00:07;1.80;99.90
33717;DHT22;20046;50.746;7.072;2024-01-15T07:02:33;1.70;99.90
33717;DHT22;20046;50.746;7.072;2024-01-15T07:04:59;1.60;99.90
33717;DHT22;20046;50.746;7.072;2024-01-15T07:07:24;1.60;99.90
33717;DHT22;20046;50.746;7.072;2024-01-15T07:09:50;1.60;99.90
33717;DHT22;20046;50.746;7.072;2024-01-15T07:12:17;1.60;99.90
33717;DHT22;20046;50.746;7.072;2024-01-15T07:14:43;1.60;99.90
33717;DHT22;20046;50.746;7.072;2024-01-15T07:17:08;1.60;99.90
33717;DHT22;20046;50.746;7.072;2024-01-15T07:19:34;1.60;99.90
33717;DHT22;20046;50.746;7.072;2024-01-15T07:21:59;1.60;99.90
33717;DHT22;20046;50.746;7.072;2024-01-15T07:24:25;1.60;99.90
33717;DHT22;20046;50.746;7.072;2024-01-15T07:26:51;1.60;99.90
33717;DHT22;20046;50.746;7.072;2024-01-15T07:29:16;1.70;99.90
33717;DHT22;20046;50.746;7.072;2024-01-15T07:31:48;1.70;99.90
33717;DHT22;20046;50.746;7.072;2024-01-15T07:34:14;1.70;99.90
33717;DHT22;20046;50.746;7.072;2024-01-15T07:36:39;1.70;99.90
33717;DHT22;20046;50.746;7.072;2024-01-15T07:39:05;1.70;99.90
33717;DHT22;20046;50.746;7.072;2024-01-15T07:41:31;1.70;99.90
33717;DHT22;20046;50.746;7.072;2024-01-15T07:43:57;1.70;99.90
33717;DHT22;20046;50.746;7.072;2024-01-15T07:46:22;1.70;99.90
33717;DHT22;20046;50.746;7.072;2024-01-15T07:48:48;1.70;99.90
33717;DHT22;20046;50.746;7.072;2024-01-15T07:51:16;1.70;99.90
33717;DHT22;20046;50.746;7.072;2024-01-15T07:53:42;1.70;99.90
33717;DHT22;20046;50.746;7.072;2024-01-15T07:56:07;1.70;99.90
33717;DHT22;20046;50.746;7.072;2024-01-15T07:58:33;1.70;99.90
33717;DHT22;20046;50.746;7.072;2024-01-15T08:00:58;1.70;99.90
33717;DHT22;20046;50.746;7.072;2024-01-15T08:03:24;1.70;99.90
33717;DHT22;20046;50.746;7.072;2024-01-15T08:05:49;1.80;99.90
33717;DHT22;20046;50.746;7.072;2024-01-15T08:08:17;1.80;99.90
33717;DHT22;20046;50.746;7.072;2024-01-15T08:10:44;1.80;99.90
33717;DHT22;20046;50.746;7.072;2024-01-15T08:13:09;1.80;99.90
33717;DHT22;20046;50.746;7.072;2024-01-15T08:15:35;1.80;99.90
33717;DHT22;20046;50.746;7.072;2024-01-15T08:18:00;1.90;99.90
33717;DHT22;20046;50.746;7.072;2024-01-15T08:20:26;1.90;99.90
33717;DHT22;20046;50.746;7.072;2024-01-15T08:22:51;1.90;99.90
33717;DHT22;20046;50.746;7.072;2024-01-15T08:25:17;1.90;99.90
33717;DHT22;20046;50.746;7.072;2024-01-15T08:27:43;2.00;99.90
33717;DHT22;20046;50.746;7.072;2024-01-15T08:30:09;2.00;99.90
33717;DHT22;20046;50.746;7.072;2024-01-15T08:32:35;2.10;99.90
33717;DHT22;20046;50.746;7.072;2024-01-15T08:35:06;2.20;99.90
33717;DHT22;20046;50.746;7.072;2024-01-15T08:37:31;2.30;99.90
33717;DHT22;20046;50.746;7.072;2024-01-15T08:39:57;2.30;99.90
33717;DHT22;20046;50.746;7.072;2024-01-15T08:42:22;2.40;99.90
33717;DHT22;20046;50.746;7.072;2024-01-15T08:44:48;2.40;99.90
33717;DHT22;20046;50.746;7.072;2024-01-15T08:47:13;2.40;99.90
33717;DHT22;20046;50.746;7.072;2024-01-15T08:49:39;2.50;99.90
33717;DHT22;20046;50.746;7.072;2024-01-15T08:52:05;2.50;99.90
33717;DHT22;20046;50.746;7.072;2024-01-15T08:54:33;2.40;99.90
33717;DHT22;20046;50.746;7.072;2024-01-15T08:56:59;2.40;99.90
33717;DHT22;20046;50.746;7.072;2024-01-15T08:59:25;2.40;99.90
33717;DHT22;20046;50.746;7.072;2024-01-15T09:01:52;2.40;99.90
33717;DHT22;20046;50.746;7.072;2024-01-15T09:04:17;2.40;99.90
33717;DHT22;20046;50.746;7.072;2024-01-15T09:06:46;2.40;99.90
33717;DHT22;20046;50.746;7.072;2024-01-15T09:09:14;2.40;99.90
33717;DHT22;20046;50.746;7.072;2024-01-15T09:11:43;2.50;99.90
33717;DHT22;20046;50.746;7.072;2024-01-15T09:14:08;2.50;99.90
33717;DHT22;20046;50.746;7.072;2024-01-15T09:16:34;2.50;99.90
33717;DHT22;20046;50.746;7.072;2024-01-15T09:19:00;2.50;99.90
33717;DHT22;20046;50.746;7.072;2024-01-15T09:21:26;2.50;99.90
33717;DHT22;20046;50.746;7.072;2024-01-15T09:23:51;2.50;99.90
33717;DHT22;20046;50.746;7.072;2024-01-15T09:26:17;2.50;99.90
33717;DHT22;20046;50.746;7.072;2024-01-15T09:28:43;2.50;99.90
33717;DHT22;20046;50.746;7.072;2024-01-15T09:31:08;2.60;99.90
33717;DHT22;20046;50.746;7.072;2024-01-15T09:33:34;2.60;99.90
33717;DHT22;20046;50.746;7.072;2024-01-15T09:36:03;2.60;99.90
33717;DHT22;20046;50.746;7.072;2024-01-15T09:38:32;2.70;99.90
33717;DHT22;20046;50.746;7.072;2024-01-15T09:40:57;2.60;99.90
33717;DHT22;20046;50.746;7.072;2024-01-15T09:43:24;2.70;99.90
33717;DHT22;20046;50.746;7.072;2024-01-15T09:45:49;2.70;99.90
33717;DHT22;20046;50.746;7.072;2024-01-15T09:48:16;2.60;99.90
33717;DHT22;20046;50.746;7.072;2024-01-15T09:50:42;2.60;99.90
33717;DHT22;20046;50.746;7.072;2024-01-15T09:53:08;2.50;99.90
33717;DHT22;20046;50.746;7.072;2024-01-15T09:55:38;2.40;99.90
33717;DHT22;20046;50.746;7.072;2024-01-15T09:58:04;2.40;99.90
33717;DHT22;20046;50.746;7.072;2024-01-15T10:00:30;2.30;99.90
33717;DHT22;20046;50.746;7.072;2024-01-15T10:02:58;2.20;99.90
33717;DHT22;20046;50.746;7.072;2024-01-15T10:05:27;2.20;99.90
33717;DHT22;20046;50.746;7.072;2024-01-15T10:07:54;2.20;99.90
33717;DHT22;20046;50.746;7.072;2024-01-15T10:10:21;2.20;99.90
33717;DHT22;20046;50.746;7.072;2024-01-15T10:12:47;2.20;99.90
33717;DHT22;20046;50.746;7.072;2024-01-15T10:15:13;2.10;99.90
33717;DHT22;20046;50.746;7.072;2024-01-15T10:17:39;2.10;99.90
33717;DHT22;20046;50.746;7.072;2024-01-15T10:20:12;2.00;99.90
33717;DHT22;20046;50.746;7.072;2024-01-15T10:22:44;2.00;99.90
33717;DHT22;20046;50.746;7.072;2024-01-15T10:25:12;2.00;99.90
33717;DHT22;20046;50.746;7.072;2024-01-15T10:27:38;2.00;99.90
33717;DHT22;20046;50.746;7.072;2024-01-15T10:30:05;2.10;99.90
33717;DHT22;20046;50.746;7.072;2024-01-15T10:32:31;2.10;99.90
33717;DHT22;20046;50.746;7.072;2024-01-15T10:34:57;2.20;99.90
33717;DHT22;20046;50.746;7.072;2024-01-15T10:37:24;2.20;99.90
33717;DHT22;20046;50.746;7.072;2024-01-15T10:39:49;2.30;99.90
33717;DHT22;20046;50.746;7.072;2024-01-15T10:42:16;2.30;99.90
33717;DHT22;20046;50.746;7.072;2024-01-15T10:44:44;2.20;99.90
33717;DHT22;20046;50.746;7.072;2024-01-15T10:47:12;2.20;99.90
33717;DHT22;20046;50.746;7.072;2024-01-15T10:49:38;2.10;99.90
33717;DHT22;20046;50.746;7.072;2024-01-15T10:52:05;2.10;99.90
33717;DHT22;20046;50.746;7.072;2024-01-15T10:54:31;2.00;99.90
33717;DHT22;20046;50.746;7.072;2024-01-15T10:56:57;2.00;99.90
33717;DHT22;20046;50.746;7.072;2024-01-15T10:59:23;2.00;99.90
33717;DHT22;20046;50.746;7.072;2024-01-15T11:01:52;2.10;99.90
33717;DHT22;20046;50.746;7.072;2024-01-15T11:04:20;2.10;99.90
33717;DHT22;20046;50.746;7.072;2024-01-15T11:06:50;2.20;99.90
33717;DHT22;20046;50.746;7.072;2024-01-15T11:09:16;2.10;99.90
33717;DHT22;20046;50.746;7.072;2024-01-15T11:11:46;2.10;99.90
33717;DHT22;20046;50.746;7.072;2024-01-15T11:14:35;2.00;99.90
33717;DHT22;20046;50.746;7.072;2024-01-15T11:17:00;2.10;99.90
33717;DHT22;20046;50.746;7.072;2024-01-15T11:22:34;2.00;99.90
33717;DHT22;20046;50.746;7.072;2024-01-15T11:25:02;2.10;99.90
33717;DHT22;20046;50.746;7.072;2024-01-15T11:27:46;2.10;99.90
33717;DHT22;20046;50.746;7.072;2024-01-15T11:30:19;2.10;99.90
33717;DHT22;20046;50.746;7.072;2024-01-15T11:32:47;2.10;99.90
33717;DHT22;20046;50.746;7.072;2024-01-15T11:35:13;2.10;99.90
33717;DHT22;20046;50.746;7.072;2024-01-15T11:40:19;2.00;99.90
33717;DHT22;20046;50.746;7.072;2024-01-15T11:42:46;2.00;99.90
33717;DHT22;20046;50.746;7.072;2024-01-15T11:45:13;2.00;99.90
33717;DHT22;20046;50.746;7.072;2024-01-15T11:48:13;2.00;99.90
33717;DHT22;20046;50.746;7.072;2024-01-15T11:50:43;2.00;99.90
33717;DHT22;20046;50.746;7.072;2024-01-15T11:53:36;2.00;99.90
33717;DHT22;20046;50.746;7.072;2024-01-15T11:56:02;2.00;99.90
33717;DHT22;20046;50.746;7.072;2024-01-15T11:58:29;2.00;99.90
33717;DHT22;20046;50.746;7.072;2024-01-15T12:00:55;2.10;99.90
33717;DHT22;20046;50.746;7.072;2024-01-15T12:03:22;2.20;99.90
33717;DHT22;20046;50.746;7.072;2024-01-15T12:05:48;2.30;99.90
33717;DHT22;20046;50.746;7.072;2024-01-15T12:08:13;2.30;99.90
33717;DHT22;20046;50.746;7.072;2024-01-15T12:10:40;2.30;99.90
33717;DHT22;20046;50.746;7.072;2024-01-15T12:13:12;2.40;99.90
33717;DHT22;20046;50.746;7.072;2024-01-15T12:15:39;2.40;99.90
33717;DHT22;20046;50.746;7.072;2024-01-15T12:18:13;2.40;99.90
33717;DHT22;20046;50.746;7.072;2024-01-15T12:20:40;2.40;99.90
33717;DHT22;20046;50.746;7.072;2024-01-15T12:23:06;2.40;99.90
33717;DHT22;20046;50.746;7.072;2024-01-15T12:25:32;2.40;99.90
33717;DHT22;20046;50.746;7.072;2024-01-15T12:27:59;2.50;99.90
33717;DHT22;20046;50.746;7.072;2024-01-15T12:30:29;2.50;99.90
33717;DHT22;20046;50.746;7.072;2024-01-15T12:32:57;2.60;99.90
33717;DHT22;20046;50.746;7.072;2024-01-15T12:35:24;2.70;99.90
33717;DHT22;20046;50.746;7.072;2024-01-15T12:37:49;2.90;99.90
33717;DHT22;20046;50.746;7.072;2024-01-15T12:40:19;3.10;99.90
33717;DHT22;20046;50.746;7.072;2024-01-15T12:42:45;3.40;99.90
33717;DHT22;20046;50.746;7.072;2024-01-15T12:45:12;4.10;99.90
33717;DHT22;20046;50.746;7.072;2024-01-15T12:47:38;6.20;99.90
33717;DHT22;20046;50.746;7.072;2024-01-15T12:50:08;8.50;99.90
33717;DHT22;20046;50.746;7.072;2024-01-15T12:52:34;9.80;99.90
33717;DHT22;20046;50.746;7.072;2024-01-15T12:55:00;9.10;99.90
33717;DHT22;20046;50.746;7.072;2024-01-15T12:57:25;8.00;99.90
33717;DHT22;20046;50.746;7.072;2024-01-15T12:59:51;6.80;99.90
33717;DHT22;20046;50.746;7.072;2024-01-15T13:02:16;6.00;99.90
33717;DHT22;20046;50.746;7.072;2024-01-15T13:04:42;5.30;99.90
33717;DHT22;20046;50.746;7.072;2024-01-15T13:07:08;4.80;99.90
33717;DHT22;20046;50.746;7.072;2024-01-15T13:09:35;4.30;99.90
33717;DHT22;20046;50.746;7.072;2024-01-15T13:12:01;4.00;99.90
33717;DHT22;20046;50.746;7.072;2024-01-15T13:14:28;3.80;99.90
33717;DHT22;20046;50.746;7.072;2024-01-15T13:16:53;3.70;99.90
33717;DHT22;20046;50.746;7.072;2024-01-15T13:19:19;4.00;99.90
33717;DHT22;20046;50.746;7.072;2024-01-15T13:21:46;4.20;99.90
33717;DHT22;20046;50.746;7.072;2024-01-15T13:24:12;4.20;99.90
33717;DHT22;20046;50.746;7.072;2024-01-15T13:26:37;4.30;99.90
33717;DHT22;20046;50.746;7.072;2024-01-15T13:29:03;4.20;99.90
33717;DHT22;20046;50.746;7.072;2024-01-15T13:31:29;4.10;99.90
33717;DHT22;20046;50.746;7.072;2024-01-15T13:33:55;4.00;99.90
33717;DHT22;20046;50.746;7.072;2024-01-15T13:36:22;3.90;99.90
33717;DHT22;20046;50.746;7.072;2024-01-15T13:38:49;3.70;99.90
33717;DHT22;20046;50.746;7.072;2024-01-15T13:41:15;3.70;99.90
33717;DHT22;20046;50.746;7.072;2024-01-15T13:43:40;3.90;99.90
33717;DHT22;20046;50.746;7.072;2024-01-15T13:46:06;3.90;99.90
33717;DHT22;20046;50.746;7.072;2024-01-15T13:48:32;3.80;99.90
33717;DHT22;20046;50.746;7.072;2024-01-15T13:50:58;3.80;99.90
33717;DHT22;20046;50.746;7.072;2024-01-15T13:53:24;3.80;99.90
33717;DHT22;20046;50.746;7.072;2024-01-15T13:55:50;3.80;99.90
33717;DHT22;20046;50.746;7.072;2024-01-15T13:58:16;3.80;99.90
33717;DHT22;20046;50.746;7.072;2024-01-15T14:00:43;3.70;99.90
33717;DHT22;20046;50.746;7.072;2024-01-15T14:03:09;3.80;99.90
33717;DHT22;20046;50.746;7.072;2024-01-15T14:05:35;3.90;99.90
33717;DHT22;20046;50.746;7.072;2024-01-15T14:08:00;3.80;99.90
33717;DHT22;20046;50.746;7.072;2024-01-15T14:10:26;3.60;99.90
33717;DHT22;20046;50.746;7.072;2024-01-15T14:12:51;3.50;99.90
33717;DHT22;20046;50.746;7.072;2024-01-15T14:15:17;3.40;99.90
33717;DHT22;20046;50.746;7.072;2024-01-15T14:17:44;3.40;99.90
33717;DHT22;20046;50.746;7.072;2024-01-15T14:20:10;3.30;99.90
33717;DHT22;20046;50.746;7.072;2024-01-15T14:22:35;3.30;99.90
33717;DHT22;20046;50.746;7.072;2024-01-15T14:25:01;3.20;99.90
33717;DHT22;20046;50.746;7.072;2024-01-15T14:27:27;3.20;99.90
33717;DHT22;20046;50.746;7.072;2024-01-15T14:29:52;3.10;99.90
33717;DHT22;20046;50.746;7.072;2024-01-15T14:32:18;3.00;99.90
33717;DHT22;20046;50.746;7.072;2024-01-15T14:34:43;2.90;99.90
33717;DHT22;20046;50.746;7.072;2024-01-15T14:37:09;2.80;99.90
33717;DHT22;20046;50.746;7.072;2024-01-15T14:39:35;2.80;99.90
33717;DHT22;20046;50.746;7.072;2024-01-15T14:42:00;2.70;99.90
33717;DHT22;20046;50.746;7.072;2024-01-15T14:44:26;2.70;99.90
33717;DHT22;20046;50.746;7.072;2024-01-15T14:46:53;2.70;99.90
33717;DHT22;20046;50.746;7.072;2024-01-15T14:49:20;2.60;99.90
33717;DHT22;20046;50.746;7.072;2024-01-15T14:51:45;2.60;99.90
33717;DHT22;20046;50.746;7.072;2024-01-15T14:54:11;2.60;99.90
33717;DHT22;20046;50.746;7.072;2024-01-15T14:56:37;2.50;99.90
33717;DHT22;20046;50.746;7.072;2024-01-15T14:59:02;2.40;99.90
33717;DHT22;20046;50.746;7.072;2024-01-15T15:01:28;2.40;99.90
33717;DHT22;20046;50.746;7.072;2024-01-15T15:03:53;2.30;99.90
33717;DHT22;20046;50.746;7.072;2024-01-15T15:06:19;2.20;99.90
33717;DHT22;20046;50.746;7.072;2024-01-15T15:08:46;2.20;99.90
33717;DHT22;20046;50.746;7.072;2024-01-15T15:11:12;2.10;99.90
33717;DHT22;20046;50.746;7.072;2024-01-15T15:13:39;2.10;99.90
33717;DHT22;20046;50.746;7.072;2024-01-15T15:16:05;2.10;99.90
33717;DHT22;20046;50.746;7.072;2024-01-15T15:18:31;2.10;99.90
33717;DHT22;20046;50.746;7.072;2024-01-15T15:20:57;2.10;99.90
33717;DHT22;20046;50.746;7.072;2024-01-15T15:23:22;2.10;99.90
33717;DHT22;20046;50.746;7.072;2024-01-15T15:25:48;2.10;99.90
33717;DHT22;20046;50.746;7.072;2024-01-15T15:28:13;2.00;99.90
33717;DHT22;20046;50.746;7.072;2024-01-15T15:30:41;2.00;99.90
33717;DHT22;20046;50.746;7.072;2024-01-15T15:33:07;2.00;99.90
33717;DHT22;20046;50.746;7.072;2024-01-15T15:35:32;2.10;99.90
33717;DHT22;20046;50.746;7.072;2024-01-15T15:37:58;2.00;99.90
33717;DHT22;20046;50.746;7.072;2024-01-15T15:40:23;2.00;99.90
33717;DHT22;20046;50.746;7.072;2024-01-15T15:42:50;2.00;99.90
33717;DHT22;20046;50.746;7.072;2024-01-15T15:45:15;2.00;99.90